sensor_id;sensor_type;location;lat;lon;timestamp;P1;durP1;ratioP1;P2;durP2;ratioP2
20954;SDS011;10636;19.390;-99.256;2023-12-14T00:00:14;19.02;;;17.42;;
20954;SDS011;10636;19.390;-99.256;2023-12-14T00:02:44;18.08;;;16.48;;
20954;SDS011;10636;19.390;-99.256;2023-12-14T00:05:13;18.33;;;16.73;;
20954;SDS011;10636;19.390;-99.256;2023-12-14T00:07:42;14.15;;;11.32;;
20954;SDS011;10636;19.390;-99.256;2023-12-14T00:10:13;13.20;;;11.73;;
20954;SDS011;10636;19.390;-99.256;2023-12-14T00:12:43;12.73;;;11.05;;
20954;SDS011;10636;19.390;-99.256;2023-12-14T00:15:12;17.35;;;15.85;;
20954;SDS011;10636;19.390;-99.256;2023-12-14T00:17:42;18.02;;;16.52;;
20954;SDS011;10636;19.390;-99.256;2023-12-14T00:20:11;18.48;;;16.98;;
20954;SDS011;10636;19.390;-99.256;2023-12-14T00:22:40;16.98;;;15.57;;
20954;SDS011;10636;19.390;-99.256;2023-12-14T00:25:09;16.27;;;14.80;;
20954;SDS011;10636;19.390;-99.256;2023-12-14T00:27:41;16.40;;;15.07;;
20954;SDS011;10636;19.390;-99.256;2023-12-14T00:30:10;17.00;;;15.48;;
20954;SDS011;10636;19.390;-99.256;2023-12-14T00:32:40;16.05;;;14.55;;
20954;SDS011;10636;19.390;-99.256;2023-12-14T00:35:09;16.98;;;15.48;;
20954;SDS011;10636;19.390;-99.256;2023-12-14T00:37:38;16.50;;;15.20;;
20954;SDS011;10636;19.390;-99.256;2023-12-14T00:40:07;16.52;;;15.13;;
20954;SDS011;10636;19.390;-99.256;2023-12-14T00:42:37;17.27;;;15.88;;
20954;SDS011;10636;19.390;-99.256;2023-12-14T00:45:08;16.25;;;14.75;;
20954;SDS011;10636;19.390;-99.256;2023-12-14T00:47:38;12.27;;;10.07;;
20954;SDS011;10636;19.390;-99.256;2023-12-14T00:50:07;10.63;;;9.52;;
20954;SDS011;10636;19.390;-99.256;2023-12-14T00:52:37;11.88;;;10.23;;
20954;SDS011;10636;19.390;-99.256;2023-12-14T00:55:07;12.30;;;10.02;;
20954;SDS011;10636;19.390;-99.256;2023-12-14T00:57:36;16.13;;;14.65;;
20954;SDS011;10636;19.390;-99.256;2023-12-14T01:00:05;16.05;;;14.73;;
20954;SDS011;10636;19.390;-99.256;2023-12-14T01:02:38;16.65;;;15.15;;
20954;SDS011;10636;19.390;-99.256;2023-12-14T01:05:08;15.27;;;13.88;;
20954;SDS011;10636;19.390;-99.256;2023-12-14T01:07:37;13.05;;;11.07;;
20954;SDS011;10636;19.390;-99.256;2023-12-14T01:10:06;13.85;;;12.52;;
20954;SDS011;10636;19.390;-99.256;2023-12-14T01:12:38;15.95;;;14.63;;
20954;SDS011;10636;19.390;-99.256;2023-12-14T01:15:10;16.20;;;14.77;;
20954;SDS011;10636;19.390;-99.256;2023-12-14T01:17:39;15.93;;;14.63;;
20954;SDS011;10636;19.390;-99.256;2023-12-14T01:20:08;16.05;;;14.68;;
20954;SDS011;10636;19.390;-99.256;2023-12-14T01:22:38;12.10;;;9.75;;
20954;SDS011;10636;19.390;-99.256;2023-12-14T01:25:07;15.23;;;13.93;;
20954;SDS011;10636;19.390;-99.256;2023-12-14T01:27:37;15.10;;;13.70;;
20954;SDS011;10636;19.390;-99.256;2023-12-14T01:30:06;16.00;;;14.60;;
20954;SDS011;10636;19.390;-99.256;2023-12-14T01:32:38;11.02;;;9.55;;
20954;SDS011;10636;19.390;-99.256;2023-12-14T01:35:07;15.02;;;13.73;;
20954;SDS011;10636;19.390;-99.256;2023-12-14T01:37:37;11.25;;;9.38;;
20954;SDS011;10636;19.390;-99.256;2023-12-14T01:40:07;15.23;;;14.00;;
20954;SDS011;10636;19.390;-99.256;2023-12-14T01:42:36;15.23;;;13.93;;
20954;SDS011;10636;19.390;-99.256;2023-12-14T01:45:06;12.30;;;9.40;;
20954;SDS011;10636;19.390;-99.256;2023-12-14T01:47:39;10.98;;;9.10;;
20954;SDS011;10636;19.390;-99.256;2023-12-14T01:50:08;10.50;;;8.45;;
20954;SDS011;10636;19.390;-99.256;2023-12-14T01:52:37;10.77;;;9.68;;
20954;SDS011;10636;19.390;-99.256;2023-12-14T01:55:07;16.05;;;14.85;;
20954;SDS011;10636;19.390;-99.256;2023-12-14T01:57:36;15.15;;;13.95;;
20954;SDS011;10636;19.390;-99.256;2023-12-14T02:00:06;10.38;;;9.30;;
20954;SDS011;10636;19.390;-99.256;2023-12-14T02:02:51;14.88;;;13.48;;
20954;SDS011;10636;19.390;-99.256;2023-12-14T02:05:21;14.48;;;13.27;;
20954;SDS011;10636;19.390;-99.256;2023-12-14T02:07:54;15.15;;;13.95;;
20954;SDS011;10636;19.390;-99.256;2023-12-14T02:10:31;15.45;;;14.15;;
20954;SDS011;10636;19.390;-99.256;2023-12-14T02:13:01;15.48;;;14.25;;
20954;SDS011;10636;19.390;-99.256;2023-12-14T02:15:32;14.07;;;12.85;;
20954;SDS011;10636;19.390;-99.256;2023-12-14T02:18:03;16.77;;;15.43;;
20954;SDS011;10636;19.390;-99.256;2023-12-14T02:20:42;11.68;;;9.10;;
20954;SDS011;10636;19.390;-99.256;2023-12-14T02:23:13;16.20;;;14.85;;
20954;SDS011;10636;19.390;-99.256;2023-12-14T02:25:46;15.60;;;14.30;;
20954;SDS011;10636;19.390;-99.256;2023-12-14T02:28:22;14.00;;;12.85;;
20954;SDS011;10636;19.390;-99.256;2023-12-14T02:30:57;10.45;;;8.85;;
20954;SDS011;10636;19.390;-99.256;2023-12-14T02:33:27;14.68;;;13.27;;
20954;SDS011;10636;19.390;-99.256;2023-12-14T02:35:57;17.33;;;15.82;;
20954;SDS011;10636;19.390;-99.256;2023-12-14T02:38:31;16.20;;;14.70;;
20954;SDS011;10636;19.390;-99.256;2023-12-14T02:41:01;15.18;;;13.90;;
20954;SDS011;10636;19.390;-99.256;2023-12-14T02:43:32;11.35;;;9.25;;
20954;SDS011;10636;19.390;-99.256;2023-12-14T02:46:01;11.15;;;9.30;;
20954;SDS011;10636;19.390;-99.256;2023-12-14T02:48:30;13.68;;;12.48;;
20954;SDS011;10636;19.390;-99.256;2023-12-14T02:51:00;15.15;;;13.77;;
20954;SDS011;10636;19.390;-99.256;2023-12-14T02:53:39;13.48;;;12.23;;
20954;SDS011;10636;19.390;-99.256;2023-12-14T02:56:15;10.65;;;9.23;;
20954;SDS011;10636;19.390;-99.256;2023-12-14T02:58:44;13.70;;;12.50;;
20954;SDS011;10636;19.390;-99.256;2023-12-14T03:01:18;19.55;;;17.88;;
20954;SDS011;10636;19.390;-99.256;2023-12-14T03:03:48;22.80;;;20.73;;
20954;SDS011;10636;19.390;-99.256;2023-12-14T03:06:17;27.38;;;24.90;;
20954;SDS011;10636;19.390;-99.256;2023-12-14T03:08:48;26.17;;;23.88;;
20954;SDS011;10636;19.390;-99.256;2023-12-14T03:11:25;26.00;;;23.70;;
20954;SDS011;10636;19.390;-99.256;2023-12-14T03:13:54;25.88;;;23.55;;
20954;SDS011;10636;19.390;-99.256;2023-12-14T03:16:23;24.73;;;22.52;;
20954;SDS011;10636;19.390;-99.256;2023-12-14T03:18:52;25.52;;;23.15;;
20954;SDS011;10636;19.390;-99.256;2023-12-14T03:21:22;24.75;;;22.45;;
20954;SDS011;10636;19.390;-99.256;2023-12-14T03:23:54;25.15;;;22.95;;
20954;SDS011;10636;19.390;-99.256;2023-12-14T03:26:30;26.60;;;23.98;;
20954;SDS011;10636;19.390;-99.256;2023-12-14T03:28:59;25.85;;;23.35;;
20954;SDS011;10636;19.390;-99.256;2023-12-14T03:31:28;25.45;;;22.98;;
20954;SDS011;10636;19.390;-99.256;2023-12-14T03:34:00;24.02;;;21.83;;
20954;SDS011;10636;19.390;-99.256;2023-12-14T03:36:30;24.30;;;21.90;;
20954;SDS011;10636;19.390;-99.256;2023-12-14T03:39:01;25.42;;;23.02;;
20954;SDS011;10636;19.390;-99.256;2023-12-14T03:41:33;24.88;;;22.23;;
20954;SDS011;10636;19.390;-99.256;2023-12-14T03:44:02;20.27;;;16.92;;
20954;SDS011;10636;19.390;-99.256;2023-12-14T03:46:32;23.90;;;21.58;;
20954;SDS011;10636;19.390;-99.256;2023-12-14T03:49:02;25.05;;;22.75;;
20954;SDS011;10636;19.390;-99.256;2023-12-14T03:51:31;23.85;;;21.65;;
20954;SDS011;10636;19.390;-99.256;2023-12-14T03:54:02;25.45;;;22.95;;
20954;SDS011;10636;19.390;-99.256;2023-12-14T03:56:32;23.60;;;21.50;;
20954;SDS011;10636;19.390;-99.256;2023-12-14T03:59:01;24.67;;;22.27;;
20954;SDS011;10636;19.390;-99.256;2023-12-14T04:01:31;25.98;;;23.33;;
20954;SDS011;10636;19.390;-99.256;2023-12-14T04:04:04;24.65;;;22.45;;
20954;SDS011;10636;19.390;-99.256;2023-12-14T04:06:33;23.42;;;21.27;;
20954;SDS011;10636;19.390;-99.256;2023-12-14T04:09:05;23.02;;;20.92;;
20954;SDS011;10636;19.390;-99.256;2023-12-14T04:11:36;23.45;;;21.25;;
20954;SDS011;10636;19.390;-99.256;2023-12-14T04:14:05;24.77;;;22.40;;
20954;SDS011;10636;19.390;-99.256;2023-12-14T04:16:35;23.25;;;21.02;;
20954;SDS011;10636;19.390;-99.256;2023-12-14T04:19:05;23.75;;;21.63;;
20954;SDS011;10636;19.390;-99.256;2023-12-14T04:21:36;22.60;;;20.40;;
20954;SDS011;10636;19.390;-99.256;2023-12-14T04:24:07;22.95;;;20.88;;
20954;SDS011;10636;19.390;-99.256;2023-12-14T04:26:38;22.92;;;20.83;;
20954;SDS011;10636;19.390;-99.256;2023-12-14T04:29:10;21.40;;;19.20;;
20954;SDS011;10636;19.390;-99.256;2023-12-14T04:31:40;22.42;;;20.40;;
20954;SDS011;10636;19.390;-99.256;2023-12-14T04:34:09;22.17;;;20.05;;
20954;SDS011;10636;19.390;-99.256;2023-12-14T04:36:41;22.48;;;20.48;;
20954;SDS011;10636;19.390;-99.256;2023-12-14T04:39:12;21.13;;;19.25;;
20954;SDS011;10636;19.390;-99.256;2023-12-14T04:41:42;21.98;;;20.08;;
20954;SDS011;10636;19.390;-99.256;2023-12-14T04:44:11;20.30;;;18.48;;
20954;SDS011;10636;19.390;-99.256;2023-12-14T04:46:41;20.48;;;18.58;;
20954;SDS011;10636;19.390;-99.256;2023-12-14T04:49:10;21.33;;;19.42;;
20954;SDS011;10636;19.390;-99.256;2023-12-14T04:51:40;17.02;;;14.80;;
20954;SDS011;10636;19.390;-99.256;2023-12-14T04:54:09;15.05;;;13.23;;
20954;SDS011;10636;19.390;-99.256;2023-12-14T04:56:40;16.20;;;14.02;;
20954;SDS011;10636;19.390;-99.256;2023-12-14T04:59:13;19.92;;;18.15;;
20954;SDS011;10636;19.390;-99.256;2023-12-14T05:01:42;20.17;;;18.48;;
20954;SDS011;10636;19.390;-99.256;2023-12-14T05:04:11;20.17;;;18.42;;
20954;SDS011;10636;19.390;-99.256;2023-12-14T05:06:41;19.63;;;17.92;;
20954;SDS011;10636;19.390;-99.256;2023-12-14T05:09:12;19.20;;;17.60;;
20954;SDS011;10636;19.390;-99.256;2023-12-14T05:11:41;20.90;;;19.00;;
20954;SDS011;10636;19.390;-99.256;2023-12-14T05:14:12;18.85;;;17.25;;
20954;SDS011;10636;19.390;-99.256;2023-12-14T05:16:41;19.40;;;17.77;;
20954;SDS011;10636;19.390;-99.256;2023-12-14T05:19:11;19.27;;;17.65;;
20954;SDS011;10636;19.390;-99.256;2023-12-14T05:21:40;15.27;;;12.80;;
20954;SDS011;10636;19.390;-99.256;2023-12-14T05:24:10;17.63;;;16.05;;
20954;SDS011;10636;19.390;-99.256;2023-12-14T05:26:41;18.60;;;16.92;;
20954;SDS011;10636;19.390;-99.256;2023-12-14T05:29:10;17.90;;;16.40;;
20954;SDS011;10636;19.390;-99.256;2023-12-14T05:31:46;19.33;;;17.63;;
20954;SDS011;10636;19.390;-99.256;2023-12-14T05:34:24;18.92;;;17.35;;
20954;SDS011;10636;19.390;-99.256;2023-12-14T05:36:59;18.73;;;17.17;;
20954;SDS011;10636;19.390;-99.256;2023-12-14T05:39:31;18.92;;;17.33;;
20954;SDS011;10636;19.390;-99.256;2023-12-14T05:42:00;17.02;;;15.55;;
20954;SDS011;10636;19.390;-99.256;2023-12-14T05:44:29;17.85;;;16.25;;
20954;SDS011;10636;19.390;-99.256;2023-12-14T05:46:59;17.77;;;16.30;;
20954;SDS011;10636;19.390;-99.256;2023-12-14T05:49:28;18.42;;;16.90;;
20954;SDS011;10636;19.390;-99.256;2023-12-14T05:51:59;17.75;;;16.35;;
20954;SDS011;10636;19.390;-99.256;2023-12-14T05:54:30;18.33;;;16.92;;
20954;SDS011;10636;19.390;-99.256;2023-12-14T05:56:59;17.10;;;15.80;;
20954;SDS011;10636;19.390;-99.256;2023-12-14T05:59:28;17.27;;;15.85;;
20954;SDS011;10636;19.390;-99.256;2023-12-14T06:01:58;17.73;;;16.35;;
20954;SDS011;10636;19.390;-99.256;2023-12-14T06:04:28;17.42;;;16.08;;
20954;SDS011;10636;19.390;-99.256;2023-12-14T06:07:01;16.45;;;15.18;;
20954;SDS011;10636;19.390;-99.256;2023-12-14T06:09:44;18.15;;;16.65;;
20954;SDS011;10636;19.390;-99.256;2023-12-14T06:12:14;17.90;;;16.50;;
20954;SDS011;10636;19.390;-99.256;2023-12-14T06:14:43;15.32;;;13.93;;
20954;SDS011;10636;19.390;-99.256;2023-12-14T06:17:12;17.17;;;15.77;;
20954;SDS011;10636;19.390;-99.256;2023-12-14T06:19:41;17.17;;;15.77;;
20954;SDS011;10636;19.390;-99.256;2023-12-14T06:22:10;16.70;;;15.30;;
20954;SDS011;10636;19.390;-99.256;2023-12-14T06:24:39;17.00;;;15.52;;
20954;SDS011;10636;19.390;-99.256;2023-12-14T06:27:10;16.88;;;15.57;;
20954;SDS011;10636;19.390;-99.256;2023-12-14T06:29:39;16.00;;;14.70;;
20954;SDS011;10636;19.390;-99.256;2023-12-14T06:32:09;15.30;;;14.07;;
20954;SDS011;10636;19.390;-99.256;2023-12-14T06:34:38;16.85;;;15.55;;
20954;SDS011;10636;19.390;-99.256;2023-12-14T06:37:08;17.38;;;15.98;;
20954;SDS011;10636;19.390;-99.256;2023-12-14T06:39:37;16.70;;;15.40;;
20954;SDS011;10636;19.390;-99.256;2023-12-14T06:42:10;15.50;;;14.30;;
20954;SDS011;10636;19.390;-99.256;2023-12-14T06:44:39;16.33;;;15.13;;
20954;SDS011;10636;19.390;-99.256;2023-12-14T06:47:09;15.80;;;14.60;;
20954;SDS011;10636;19.390;-99.256;2023-12-14T06:49:39;15.90;;;14.73;;
20954;SDS011;10636;19.390;-99.256;2023-12-14T06:52:10;15.20;;;14.00;;
20954;SDS011;10636;19.390;-99.256;2023-12-14T06:54:39;15.27;;;14.07;;
20954;SDS011;10636;19.390;-99.256;2023-12-14T06:57:10;15.77;;;14.57;;
20954;SDS011;10636;19.390;-99.256;2023-12-14T06:59:40;16.00;;;14.80;;
20954;SDS011;10636;19.390;-99.256;2023-12-14T07:02:09;15.80;;;14.57;;
20954;SDS011;10636;19.390;-99.256;2023-12-14T07:04:38;14.77;;;13.57;;
20954;SDS011;10636;19.390;-99.256;2023-12-14T07:07:07;15.68;;;14.55;;
20954;SDS011;10636;19.390;-99.256;2023-12-14T07:09:36;14.43;;;13.38;;
20954;SDS011;10636;19.390;-99.256;2023-12-14T07:12:06;15.35;;;14.25;;
20954;SDS011;10636;19.390;-99.256;2023-12-14T07:14:42;15.95;;;14.77;;
20954;SDS011;10636;19.390;-99.256;2023-12-14T07:17:12;14.35;;;13.35;;
20954;SDS011;10636;19.390;-99.256;2023-12-14T07:19:41;15.35;;;14.15;;
20954;SDS011;10636;19.390;-99.256;2023-12-14T07:22:11;15.60;;;14.48;;
20954;SDS011;10636;19.390;-99.256;2023-12-14T07:24:40;15.32;;;14.13;;
20954;SDS011;10636;19.390;-99.256;2023-12-14T07:27:11;15.98;;;14.88;;
20954;SDS011;10636;19.390;-99.256;2023-12-14T07:29:40;15.02;;;13.93;;
20954;SDS011;10636;19.390;-99.256;2023-12-14T07:32:09;14.93;;;13.75;;
20954;SDS011;10636;19.390;-99.256;2023-12-14T07:34:38;15.63;;;14.48;;
20954;SDS011;10636;19.390;-99.256;2023-12-14T07:37:08;13.27;;;12.23;;
20954;SDS011;10636;19.390;-99.256;2023-12-14T07:39:37;14.90;;;13.73;;
20954;SDS011;10636;19.390;-99.256;2023-12-14T07:42:06;13.68;;;12.57;;
20954;SDS011;10636;19.390;-99.256;2023-12-14T07:44:37;15.20;;;14.10;;
20954;SDS011;10636;19.390;-99.256;2023-12-14T07:47:06;14.10;;;13.10;;
20954;SDS011;10636;19.390;-99.256;2023-12-14T07:49:35;14.65;;;13.55;;
20954;SDS011;10636;19.390;-99.256;2023-12-14T07:52:06;14.55;;;13.50;;
20954;SDS011;10636;19.390;-99.256;2023-12-14T07:54:35;14.93;;;13.82;;
20954;SDS011;10636;19.390;-99.256;2023-12-14T07:57:04;15.00;;;13.93;;
20954;SDS011;10636;19.390;-99.256;2023-12-14T07:59:38;13.80;;;12.80;;
20954;SDS011;10636;19.390;-99.256;2023-12-14T08:02:07;15.60;;;14.43;;
20954;SDS011;10636;19.390;-99.256;2023-12-14T08:04:36;14.85;;;13.75;;
20954;SDS011;10636;19.390;-99.256;2023-12-14T08:07:05;14.75;;;13.65;;
20954;SDS011;10636;19.390;-99.256;2023-12-14T08:09:34;14.55;;;13.55;;
20954;SDS011;10636;19.390;-99.256;2023-12-14T08:12:04;15.27;;;14.15;;
20954;SDS011;10636;19.390;-99.256;2023-12-14T08:14:34;15.82;;;14.63;;
20954;SDS011;10636;19.390;-99.256;2023-12-14T08:17:06;14.80;;;13.80;;
20954;SDS011;10636;19.390;-99.256;2023-12-14T08:19:35;15.02;;;14.00;;
20954;SDS011;10636;19.390;-99.256;2023-12-14T08:22:04;14.23;;;13.13;;
20954;SDS011;10636;19.390;-99.256;2023-12-14T08:24:43;14.68;;;13.68;;
20954;SDS011;10636;19.390;-99.256;2023-12-14T08:27:13;14.70;;;13.60;;
20954;SDS011;10636;19.390;-99.256;2023-12-14T08:29:45;14.55;;;13.55;;
20954;SDS011;10636;19.390;-99.256;2023-12-14T08:32:15;14.63;;;13.52;;
20954;SDS011;10636;19.390;-99.256;2023-12-14T08:34:44;14.48;;;13.50;;
20954;SDS011;10636;19.390;-99.256;2023-12-14T08:37:13;14.57;;;13.57;;
20954;SDS011;10636;19.390;-99.256;2023-12-14T08:39:41;15.68;;;14.50;;
20954;SDS011;10636;19.390;-99.256;2023-12-14T08:42:12;15.20;;;14.15;;
20954;SDS011;10636;19.390;-99.256;2023-12-14T08:44:40;15.50;;;14.40;;
20954;SDS011;10636;19.390;-99.256;2023-12-14T08:47:09;15.60;;;14.50;;
20954;SDS011;10636;19.390;-99.256;2023-12-14T08:49:39;14.88;;;13.88;;
20954;SDS011;10636;19.390;-99.256;2023-12-14T08:52:08;15.30;;;14.20;;
20954;SDS011;10636;19.390;-99.256;2023-12-14T08:54:37;14.63;;;13.52;;
20954;SDS011;10636;19.390;-99.256;2023-12-14T08:57:06;15.35;;;14.25;;
20954;SDS011;10636;19.390;-99.256;2023-12-14T08:59:34;14.88;;;13.77;;
20954;SDS011;10636;19.390;-99.256;2023-12-14T09:02:03;16.10;;;15.00;;
20954;SDS011;10636;19.390;-99.256;2023-12-14T09:04:33;14.50;;;13.45;;
20954;SDS011;10636;19.390;-99.256;2023-12-14T09:07:04;16.20;;;15.05;;
20954;SDS011;10636;19.390;-99.256;2023-12-14T09:09:33;15.57;;;14.38;;
20954;SDS011;10636;19.390;-99.256;2023-12-14T09:12:02;16.02;;;14.82;;
20954;SDS011;10636;19.390;-99.256;2023-12-14T09:14:32;16.02;;;14.82;;
20954;SDS011;10636;19.390;-99.256;2023-12-14T09:17:01;15.63;;;14.52;;
20954;SDS011;10636;19.390;-99.256;2023-12-14T09:19:31;15.55;;;14.40;;
20954;SDS011;10636;19.390;-99.256;2023-12-14T09:22:00;16.40;;;15.30;;
20954;SDS011;10636;19.390;-99.256;2023-12-14T09:24:31;16.30;;;15.15;;
20954;SDS011;10636;19.390;-99.256;2023-12-14T09:27:00;15.95;;;14.85;;
20954;SDS011;10636;19.390;-99.256;2023-12-14T09:29:29;15.23;;;14.10;;
20954;SDS011;10636;19.390;-99.256;2023-12-14T09:31:58;15.93;;;14.82;;
20954;SDS011;10636;19.390;-99.256;2023-12-14T09:34:27;16.38;;;15.10;;
20954;SDS011;10636;19.390;-99.256;2023-12-14T09:36:56;16.52;;;15.23;;
20954;SDS011;10636;19.390;-99.256;2023-12-14T09:39:25;17.27;;;15.98;;
20954;SDS011;10636;19.390;-99.256;2023-12-14T09:42:02;16.17;;;15.00;;
20954;SDS011;10636;19.390;-99.256;2023-12-14T09:44:31;17.95;;;16.60;;
20954;SDS011;10636;19.390;-99.256;2023-12-14T09:47:00;16.73;;;15.52;;
20954;SDS011;10636;19.390;-99.256;2023-12-14T09:49:29;17.10;;;15.70;;
20954;SDS011;10636;19.390;-99.256;2023-12-14T09:51:58;16.55;;;15.35;;
20954;SDS011;10636;19.390;-99.256;2023-12-14T09:54:27;17.15;;;15.85;;
20954;SDS011;10636;19.390;-99.256;2023-12-14T09:56:56;16.27;;;14.98;;
20954;SDS011;10636;19.390;-99.256;2023-12-14T09:59:26;17.55;;;16.25;;
20954;SDS011;10636;19.390;-99.256;2023-12-14T10:01:59;16.48;;;15.27;;
20954;SDS011;10636;19.390;-99.256;2023-12-14T10:04:37;17.25;;;15.88;;
20954;SDS011;10636;19.390;-99.256;2023-12-14T10:07:07;16.20;;;14.98;;
20954;SDS011;10636;19.390;-99.256;2023-12-14T10:09:36;16.83;;;15.52;;
20954;SDS011;10636;19.390;-99.256;2023-12-14T10:12:07;17.05;;;15.68;;
20954;SDS011;10636;19.390;-99.256;2023-12-14T10:14:38;16.02;;;14.73;;
20954;SDS011;10636;19.390;-99.256;2023-12-14T10:17:13;18.67;;;17.23;;
20954;SDS011;10636;19.390;-99.256;2023-12-14T10:19:45;17.92;;;16.52;;
20954;SDS011;10636;19.390;-99.256;2023-12-14T10:22:14;18.08;;;16.67;;
20954;SDS011;10636;19.390;-99.256;2023-12-14T10:24:44;19.33;;;17.83;;
20954;SDS011;10636;19.390;-99.256;2023-12-14T10:27:14;17.73;;;16.35;;
20954;SDS011;10636;19.390;-99.256;2023-12-14T10:29:45;18.15;;;16.65;;
20954;SDS011;10636;19.390;-99.256;2023-12-14T10:32:16;18.73;;;17.27;;
20954;SDS011;10636;19.390;-99.256;2023-12-14T10:34:46;18.08;;;16.67;;
20954;SDS011;10636;19.390;-99.256;2023-12-14T10:37:15;18.85;;;17.42;;
20954;SDS011;10636;19.390;-99.256;2023-12-14T10:39:46;18.95;;;17.45;;
20954;SDS011;10636;19.390;-99.256;2023-12-14T10:42:18;19.27;;;17.70;;
20954;SDS011;10636;19.390;-99.256;2023-12-14T10:44:52;18.98;;;17.48;;
20954;SDS011;10636;19.390;-99.256;2023-12-14T10:47:21;19.30;;;17.80;;
20954;SDS011;10636;19.390;-99.256;2023-12-14T10:49:50;19.05;;;17.50;;
20954;SDS011;10636;19.390;-99.256;2023-12-14T10:52:21;18.23;;;16.83;;
20954;SDS011;10636;19.390;-99.256;2023-12-14T10:54:52;19.63;;;18.02;;
20954;SDS011;10636;19.390;-99.256;2023-12-14T10:57:29;18.30;;;16.80;;
20954;SDS011;10636;19.390;-99.256;2023-12-14T11:00:00;19.92;;;18.33;;
20954;SDS011;10636;19.390;-99.256;2023-12-14T11:02:30;19.60;;;18.00;;
20954;SDS011;10636;19.390;-99.256;2023-12-14T11:05:09;20.15;;;18.55;;
20954;SDS011;10636;19.390;-99.256;2023-12-14T11:07:45;19.50;;;17.95;;
20954;SDS011;10636;19.390;-99.256;2023-12-14T11:10:17;19.33;;;17.88;;
20954;SDS011;10636;19.390;-99.256;2023-12-14T11:12:57;19.23;;;17.73;;
20954;SDS011;10636;19.390;-99.256;2023-12-14T11:15:33;19.13;;;17.63;;
20954;SDS011;10636;19.390;-99.256;2023-12-14T11:20:51;20.73;;;18.92;;
20954;SDS011;10636;19.390;-99.256;2023-12-14T11:23:29;19.83;;;18.10;;
20954;SDS011;10636;19.390;-99.256;2023-12-14T11:26:00;20.90;;;19.20;;
20954;SDS011;10636;19.390;-99.256;2023-12-14T11:28:31;20.58;;;18.88;;
20954;SDS011;10636;19.390;-99.256;2023-12-14T11:31:03;19.80;;;18.30;;
20954;SDS011;10636;19.390;-99.256;2023-12-14T11:33:33;19.35;;;17.83;;
20954;SDS011;10636;19.390;-99.256;2023-12-14T11:36:01;21.23;;;19.52;;
20954;SDS011;10636;19.390;-99.256;2023-12-14T11:38:31;21.63;;;19.83;;
20954;SDS011;10636;19.390;-99.256;2023-12-14T11:41:01;20.05;;;18.45;;
20954;SDS011;10636;19.390;-99.256;2023-12-14T11:43:38;20.67;;;19.08;;
20954;SDS011;10636;19.390;-99.256;2023-12-14T11:46:10;20.20;;;18.50;;
20954;SDS011;10636;19.390;-99.256;2023-12-14T11:48:40;21.02;;;19.33;;
20954;SDS011;10636;19.390;-99.256;2023-12-14T11:51:11;20.92;;;19.13;;
20954;SDS011;10636;19.390;-99.256;2023-12-14T11:53:43;23.08;;;21.17;;
20954;SDS011;10636;19.390;-99.256;2023-12-14T11:56:12;24.58;;;22.48;;
20954;SDS011;10636;19.390;-99.256;2023-12-14T11:58:43;25.80;;;23.60;;
20954;SDS011;10636;19.390;-99.256;2023-12-14T12:01:15;25.42;;;23.23;;
20954;SDS011;10636;19.390;-99.256;2023-12-14T12:03:46;24.13;;;22.13;;
20954;SDS011;10636;19.390;-99.256;2023-12-14T12:06:22;24.58;;;22.15;;
20954;SDS011;10636;19.390;-99.256;2023-12-14T12:08:53;24.92;;;22.73;;
20954;SDS011;10636;19.390;-99.256;2023-12-14T12:11:23;23.90;;;21.73;;
20954;SDS011;10636;19.390;-99.256;2023-12-14T12:13:53;23.77;;;21.58;;
20954;SDS011;10636;19.390;-99.256;2023-12-14T12:16:28;23.45;;;21.35;;
20954;SDS011;10636;19.390;-99.256;2023-12-14T12:18:58;23.23;;;21.23;;
20954;SDS011;10636;19.390;-99.256;2023-12-14T12:21:27;23.65;;;21.55;;
20954;SDS011;10636;19.390;-99.256;2023-12-14T12:23:56;24.20;;;22.10;;
20954;SDS011;10636;19.390;-99.256;2023-12-14T12:26:25;23.38;;;21.13;;
20954;SDS011;10636;19.390;-99.256;2023-12-14T12:28:55;24.42;;;22.13;;
20954;SDS011;10636;19.390;-99.256;2023-12-14T12:31:24;23.73;;;21.60;;
20954;SDS011;10636;19.390;-99.256;2023-12-14T12:33:55;24.63;;;22.42;;
20954;SDS011;10636;19.390;-99.256;2023-12-14T12:36:25;27.27;;;24.52;;
20954;SDS011;10636;19.390;-99.256;2023-12-14T12:38:54;25.17;;;22.58;;
20954;SDS011;10636;19.390;-99.256;2023-12-14T12:41:23;25.90;;;23.40;;
20954;SDS011;10636;19.390;-99.256;2023-12-14T12:43:52;25.15;;;22.83;;
20954;SDS011;10636;19.390;-99.256;2023-12-14T12:46:21;24.60;;;22.30;;
20954;SDS011;10636;19.390;-99.256;2023-12-14T12:48:51;26.25;;;23.85;;
20954;SDS011;10636;19.390;-99.256;2023-12-14T12:51:21;23.73;;;21.42;;
20954;SDS011;10636;19.390;-99.256;2023-12-14T12:53:51;26.80;;;24.25;;
20954;SDS011;10636;19.390;-99.256;2023-12-14T12:56:21;26.38;;;23.88;;
20954;SDS011;10636;19.390;-99.256;2023-12-14T12:58:50;27.30;;;24.55;;
20954;SDS011;10636;19.390;-99.256;2023-12-14T13:01:19;26.25;;;23.73;;
20954;SDS011;10636;19.390;-99.256;2023-12-14T13:03:54;25.58;;;23.00;;
20954;SDS011;10636;19.390;-99.256;2023-12-14T13:06:26;26.42;;;23.92;;
20954;SDS011;10636;19.390;-99.256;2023-12-14T13:08:55;26.70;;;24.15;;
20954;SDS011;10636;19.390;-99.256;2023-12-14T13:11:24;26.35;;;23.80;;
20954;SDS011;10636;19.390;-99.256;2023-12-14T13:13:53;27.75;;;25.10;;
20954;SDS011;10636;19.390;-99.256;2023-12-14T13:16:26;28.73;;;25.83;;
20954;SDS011;10636;19.390;-99.256;2023-12-14T13:18:56;28.67;;;25.77;;
20954;SDS011;10636;19.390;-99.256;2023-12-14T13:21:26;28.05;;;25.35;;
20954;SDS011;10636;19.390;-99.256;2023-12-14T13:23:56;27.10;;;24.50;;
20954;SDS011;10636;19.390;-99.256;2023-12-14T13:26:25;28.52;;;25.85;;
20954;SDS011;10636;19.390;-99.256;2023-12-14T13:28:54;30.33;;;27.33;;
20954;SDS011;10636;19.390;-99.256;2023-12-14T13:31:24;29.08;;;26.25;;
20954;SDS011;10636;19.390;-99.256;2023-12-14T13:33:53;28.63;;;25.92;;
20954;SDS011;10636;19.390;-99.256;2023-12-14T13:36:22;28.75;;;25.95;;
20954;SDS011;10636;19.390;-99.256;2023-12-14T13:38:54;28.85;;;26.02;;
20954;SDS011;10636;19.390;-99.256;2023-12-14T13:41:24;29.35;;;26.65;;
20954;SDS011;10636;19.390;-99.256;2023-12-14T13:43:53;28.08;;;25.38;;
20954;SDS011;10636;19.390;-99.256;2023-12-14T13:46:22;28.90;;;26.10;;
20954;SDS011;10636;19.390;-99.256;2023-12-14T13:48:51;29.33;;;26.52;;
20954;SDS011;10636;19.390;-99.256;2023-12-14T13:51:20;29.65;;;26.65;;
20954;SDS011;10636;19.390;-99.256;2023-12-14T13:53:49;30.52;;;27.63;;
20954;SDS011;10636;19.390;-99.256;2023-12-14T13:56:21;30.17;;;27.20;;
20954;SDS011;10636;19.390;-99.256;2023-12-14T13:58:53;29.50;;;26.60;;
20954;SDS011;10636;19.390;-99.256;2023-12-14T14:01:23;30.42;;;27.52;;
20954;SDS011;10636;19.390;-99.256;2023-12-14T14:03:53;29.98;;;27.08;;
20954;SDS011;10636;19.390;-99.256;2023-12-14T14:06:24;30.38;;;27.30;;
20954;SDS011;10636;19.390;-99.256;2023-12-14T14:08:54;31.15;;;28.05;;
20954;SDS011;10636;19.390;-99.256;2023-12-14T14:11:26;30.40;;;27.50;;
20954;SDS011;10636;19.390;-99.256;2023-12-14T14:13:56;31.27;;;28.08;;
20954;SDS011;10636;19.390;-99.256;2023-12-14T14:16:26;30.20;;;27.10;;